Time;durP1;ratioP1;P1;durP2;ratioP2;P2;SDS_P1;SDS_P2;PMS_P1;PMS_P2;Temp;Humidity;BMP_temperature;BMP_pressure;BME280_temperature;BME280_humidity;BME280_pressure;Samples;Min_cycle;Max_cycle;Signal;HPM_P1;HPM_P2
2022/08/18 00:00:13;;;;;;;12.10;9.00;;;;;;;21.65;50.23;99484.38;10391588;28;20494;-59
2022/08/18 00:05:21;;;;;;;10.07;9.02;;;;;;;21.62;50.36;99494.56;10391691;28;20053;-59
2022/08/18 00:10:22;;;;;;;10.00;9.00;;;;;;;21.58;50.49;99495.88;10391872;28;20085;-58
2022/08/18 00:15:25;;;;;;;10.88;9.27;;;;;;;21.51;50.90;99494.91;10390311;28;20152;-59
2022/08/18 00:20:27;;;;;;;11.70;9.15;;;;;;;21.39;51.17;99499.78;10391806;28;20148;-60
2022/08/18 00:25:28;;;;;;;12.32;9.30;;;;;;;21.30;51.11;99491.94;10391637;28;20080;-60
2022/08/18 00:30:31;;;;;;;11.55;9.63;;;;;;;21.25;51.43;99499.63;10398034;28;20125;-60
2022/08/18 00:35:36;;;;;;;12.88;10.48;;;;;;;21.16;51.67;99490.81;10397188;28;20099;-59
2022/08/18 00:40:43;;;;;;;12.40;10.27;;;;;;;20.99;52.31;99491.84;10396695;28;20056;-60
2022/08/18 00:45:45;;;;;;;11.45;10.20;;;;;;;20.90;52.29;99477.75;10398218;28;20135;-59
2022/08/18 00:50:59;;;;;;;12.25;9.90;;;;;;;20.83;52.55;99491.88;10397984;28;20132;-60
2022/08/18 00:56:09;;;;;;;12.02;9.40;;;;;;;20.72;52.49;99502.84;10396505;28;20443;-60
2022/08/18 01:01:13;;;;;;;14.13;9.98;;;;;;;20.63;52.75;99496.69;10396235;28;20045;-59
2022/08/18 01:06:35;;;;;;;11.93;10.18;;;;;;;20.58;53.14;99496.34;10397152;28;20409;-60
2022/08/18 01:11:40;;;;;;;14.05;10.73;;;;;;;20.59;53.29;99499.84;10395912;28;20557;-59
2022/08/18 01:22:43;;;;;;;14.40;10.25;;;;;;;20.41;53.85;99505.28;10396927;28;20131;-59
2022/08/18 01:27:45;;;;;;;11.95;10.40;;;;;;;20.49;53.24;99496.47;10393504;28;20091;-59
2022/08/18 01:32:49;;;;;;;12.57;11.02;;;;;;;20.47;53.52;99501.97;10395840;28;20061;-59
2022/08/18 01:37:54;;;;;;;11.85;10.63;;;;;;;20.49;53.32;99507.94;10394523;28;20095;-59
2022/08/18 01:42:55;;;;;;;12.15;10.65;;;;;;;20.45;53.86;99503.97;10395874;28;21177;-59
2022/08/18 01:47:58;;;;;;;13.18;10.77;;;;;;;20.43;53.90;99499.81;10395729;28;20123;-60
2022/08/18 01:53:04;;;;;;;14.38;11.30;;;;;;;20.42;53.64;99506.94;10395475;28;20092;-60
2022/08/18 01:58:06;;;;;;;12.68;10.85;;;;;;;20.38;53.88;99515.41;10395214;28;20137;-60
2022/08/18 02:03:11;;;;;;;15.73;11.25;;;;;;;20.22;54.51;99510.88;10394785;28;20148;-60
2022/08/18 02:08:14;;;;;;;11.98;10.20;;;;;;;20.08;54.50;99503.56;10395196;28;20077;-59
2022/08/18 02:13:17;;;;;;;12.57;10.85;;;;;;;20.06;54.71;99500.22;10394644;28;20055;-59
2022/08/18 02:18:22;;;;;;;11.98;10.77;;;;;;;20.06;54.72;99501.06;10394375;28;20057;-59
2022/08/18 02:23:45;;;;;;;12.50;10.85;;;;;;;20.12;54.72;99494.28;10394143;28;20872;-60
2022/08/18 02:28:54;;;;;;;12.60;11.23;;;;;;;20.22;54.04;99497.59;10394130;28;20136;-60
2022/08/18 02:33:56;;;;;;;15.23;10.93;;;;;;;20.18;54.37;99505.09;10394089;28;20049;-59
2022/08/18 02:38:57;;;;;;;12.50;11.23;;;;;;;20.13;54.65;99502.06;10393324;28;20564;-60
2022/08/18 02:44:00;;;;;;;12.23;10.98;;;;;;;20.12;54.52;99512.84;10393393;28;20053;-59
2022/08/18 02:49:04;;;;;;;12.02;10.73;;;;;;;20.10;54.41;99506.88;10393112;28;20107;-59
2022/08/18 02:54:09;;;;;;;11.70;10.50;;;;;;;20.04;54.77;99528.75;10392947;28;20115;-59
2022/08/18 02:59:15;;;;;;;11.40;10.27;;;;;;;20.06;55.11;99522.31;10393191;28;20087;-59
2022/08/18 03:04:27;;;;;;;13.73;11.20;;;;;;;20.11;54.87;99525.28;10393223;28;20485;-60
2022/08/18 03:09:32;;;;;;;15.32;13.35;;;;;;;20.06;55.01;99510.84;10393003;28;21138;-59
2022/08/18 03:14:34;;;;;;;17.80;15.00;;;;;;;20.17;55.11;99510.56;10392463;28;20579;-59
2022/08/18 03:19:37;;;;;;;16.63;14.45;;;;;;;20.30;54.50;99508.25;10392513;28;20571;-59
2022/08/18 03:24:39;;;;;;;14.45;11.20;;;;;;;20.40;54.21;99513.44;10393498;28;20103;-59
2022/08/18 03:29:41;;;;;;;14.98;12.00;;;;;;;20.32;54.49;99506.25;10392510;28;20270;-59
2022/08/18 03:34:42;;;;;;;13.90;11.43;;;;;;;20.07;54.93;99513.34;10392362;28;20473;-59
2022/08/18 03:39:44;;;;;;;13.52;11.73;;;;;;;20.13;54.92;99522.50;10391912;28;20136;-60
2022/08/18 03:44:46;;;;;;;12.10;10.90;;;;;;;20.15;54.83;99512.53;10392736;28;20299;-60
2022/08/18 03:49:48;;;;;;;13.50;11.93;;;;;;;20.14;54.46;99502.91;10392224;28;20131;-59
2022/08/18 03:54:53;;;;;;;13.40;10.80;;;;;;;20.15;54.76;99500.06;10391826;28;20107;-60
2022/08/18 03:59:55;;;;;;;13.38;12.00;;;;;;;20.20;54.61;99496.94;10392065;28;20081;-59
2022/08/18 04:04:56;;;;;;;15.07;13.32;;;;;;;20.16;54.72;99500.91;10399325;28;20130;-60
2022/08/18 04:09:58;;;;;;;14.05;11.43;;;;;;;20.00;55.08;99504.38;10399896;28;20136;-59
2022/08/18 04:15:00;;;;;;;15.90;11.70;;;;;;;20.00;55.02;99511.50;10399420;28;20101;-60
2022/08/18 04:20:03;;;;;;;12.32;11.13;;;;;;;20.10;54.77;99498.91;10399249;28;20111;-59
2022/08/18 04:25:08;;;;;;;13.00;11.48;;;;;;;20.17;54.83;99487.47;10399182;28;20077;-60
2022/08/18 04:30:10;;;;;;;13.75;11.63;;;;;;;20.12;55.22;99488.97;10399333;28;20349;-60
2022/08/18 04:35:11;;;;;;;13.55;12.00;;;;;;;20.04;55.37;99487.13;10398590;28;20567;-60
2022/08/18 04:40:14;;;;;;;15.02;10.90;;;;;;;20.06;55.01;99489.63;10397127;28;20301;-59
2022/08/18 04:45:19;;;;;;;19.27;14.60;;;;;;;20.13;55.18;99491.44;10397155;28;20511;-59
2022/08/18 04:50:23;;;;;;;16.83;14.13;;;;;;;20.24;54.90;99493.81;10397827;28;20565;-59
2022/08/18 04:55:28;;;;;;;15.75;14.15;;;;;;;20.16;55.47;99501.75;10397756;28;20061;-61
2022/08/18 05:00:29;;;;;;;17.48;13.88;;;;;;;20.07;55.70;99507.22;10398160;28;20124;-58
2022/08/18 05:05:31;;;;;;;16.40;13.82;;;;;;;20.19;55.32;99508.56;10397262;28;20084;-58
2022/08/18 05:10:34;;;;;;;15.40;13.77;;;;;;;20.31;55.21;99511.75;10397538;28;20132;-58
2022/08/18 05:15:36;;;;;;;20.25;15.70;;;;;;;20.32;55.39;99524.84;10396265;28;20140;-58
2022/08/18 05:20:59;;;;;;;18.67;15.90;;;;;;;20.35;55.10;99521.88;10397356;28;20050;-58
2022/08/18 05:26:02;;;;;;;17.63;14.45;;;;;;;20.42;55.09;99528.19;10396592;28;20053;-58
2022/08/18 05:31:09;;;;;;;18.30;14.00;;;;;;;20.59;54.45;99529.91;10396429;28;20123;-58
2022/08/18 05:36:14;;;;;;;15.77;14.07;;;;;;;20.71;54.08;99533.06;10395958;28;20145;-58
2022/08/18 05:41:24;;;;;;;16.65;14.13;;;;;;;20.82;54.16;99536.25;10395916;28;20124;-58
2022/08/18 05:46:54;;;;;;;15.93;12.93;;;;;;;20.86;53.96;99539.38;10395670;28;20112;-58
2022/08/18 05:52:11;;;;;;;14.40;12.57;;;;;;;20.94;53.89;99548.19;10394742;28;20578;-58
2022/08/18 05:57:20;;;;;;;15.50;12.52;;;;;;;20.86;54.03;99555.34;10377581;28;20111;-60
2022/08/18 06:02:35;;;;;;;16.27;13.50;;;;;;;20.80;54.46;99554.19;10395443;28;20064;-60
2022/08/18 06:07:40;;;;;;;17.15;15.35;;;;;;;20.91;54.07;99561.81;10386146;28;20133;-61
2022/08/18 06:12:50;;;;;;;21.95;14.98;;;;;;;21.07;53.78;99561.78;10394428;28;20110;-60
2022/08/18 06:18:29;;;;;;;18.98;17.00;;;;;;;21.17;53.96;99564.28;10394824;28;20084;-58
2022/08/18 06:23:41;;;;;;;25.07;17.13;;;;;;;21.30;53.34;99555.78;10347443;28;20407;-58
2022/08/18 06:29:06;;;;;;;22.10;16.20;;;;;;;21.48;52.96;99569.75;10384269;28;20436;-58
2022/08/18 06:34:28;;;;;;;19.67;15.80;;;;;;;21.58;52.74;99571.22;10393909;28;20919;-58
2022/08/18 06:39:35;;;;;;;15.80;14.10;;;;;;;21.85;52.16;99567.31;10394129;28;20065;-58
2022/08/18 06:44:52;;;;;;;20.05;15.57;;;;;;;22.07;51.57;99568.44;10393921;28;20859;-59
2022/08/18 06:50:04;;;;;;;19.65;16.23;;;;;;;22.05;51.60;99563.25;10393237;28;20569;-59
2022/08/18 06:55:15;;;;;;;18.02;15.05;;;;;;;22.08;51.65;99557.59;10391636;28;20412;-59
2022/08/18 07:00:17;;;;;;;20.60;15.57;;;;;;;22.16;51.40;99554.91;10394109;28;20049;-59
2022/08/18 07:05:25;;;;;;;17.85;15.27;;;;;;;22.10;51.58;99560.94;10393324;28;20393;-59
2022/08/18 07:10:33;;;;;;;21.13;15.70;;;;;;;22.04;51.73;99561.63;10393029;28;20521;-59
2022/08/18 07:15:35;;;;;;;23.60;16.15;;;;;;;22.04;51.87;99558.97;10393119;28;20485;-59
2022/08/18 07:20:53;;;;;;;19.17;15.50;;;;;;;21.98;52.29;99566.78;10392919;28;20050;-59
2022/08/18 07:26:07;;;;;;;25.23;22.52;;;;;;;21.91;52.32;99566.63;10393042;28;20136;-59
2022/08/18 07:31:41;;;;;;;27.27;23.90;;;;;;;21.80;52.62;99565.16;10392183;28;20057;-59
2022/08/18 07:37:02;;;;;;;27.67;24.70;;;;;;;21.94;52.51;99578.78;10391159;28;20087;-59
2022/08/18 07:42:16;;;;;;;26.77;23.50;;;;;;;21.84;52.84;99589.63;10399823;28;20295;-60
2022/08/18 07:47:48;;;;;;;23.58;21.08;;;;;;;21.74;52.57;99589.00;10400903;28;20055;-60
2022/08/18 07:53:11;;;;;;;34.00;26.95;;;;;;;21.76;53.02;99594.97;10400303;28;20084;-60
2022/08/18 07:58:25;;;;;;;27.20;24.38;;;;;;;21.71;53.31;99594.66;10400133;28;20056;-59
2022/08/18 08:03:57;;;;;;;28.25;23.80;;;;;;;21.78;52.99;99592.97;10399935;28;20114;-59
2022/08/18 08:09:21;;;;;;;27.00;23.48;;;;;;;21.82;53.04;99591.63;10399703;28;20100;-59
2022/08/18 08:14:24;;;;;;;28.90;25.73;;;;;;;21.94;52.66;99598.25;10400386;28;20050;-60
2022/08/18 08:19:35;;;;;;;29.20;24.77;;;;;;;22.13;52.25;99603.19;10399973;28;20125;-59
2022/08/18 08:25:02;;;;;;;27.92;24.92;;;;;;;22.26;51.92;99602.63;10399581;28;20049;-59
2022/08/18 08:30:06;;;;;;;36.00;30.08;;;;;;;22.20;51.81;99608.66;10398727;28;20474;-59
2022/08/18 08:35:15;;;;;;;29.85;26.63;;;;;;;22.06;52.33;99615.53;10398472;28;20668;-59
2022/08/18 08:40:51;;;;;;;31.50;25.52;;;;;;;22.27;52.27;99609.63;10399166;28;20140;-59
2022/08/18 08:46:02;;;;;;;33.42;29.80;;;;;;;22.35;53.33;99605.06;10398196;28;20414;-60
2022/08/18 08:51:20;;;;;;;36.00;30.15;;;;;;;22.55;54.27;99608.13;10395320;28;20092;-59
2022/08/18 08:56:28;;;;;;;35.38;31.45;;;;;;;22.83;52.99;99611.13;10397464;28;20093;-59
2022/08/18 09:01:40;;;;;;;38.80;33.03;;;;;;;23.12;54.31;99605.94;10398042;28;20386;-59
2022/08/18 09:06:51;;;;;;;35.13;31.33;;;;;;;23.43;52.31;99598.69;10397942;28;20108;-59
2022/08/18 09:12:35;;;;;;;36.35;32.47;;;;;;;23.73;51.82;99597.69;10397598;28;20085;-59
2022/08/18 09:18:06;;;;;;;36.53;32.40;;;;;;;23.88;49.95;99593.16;10369912;28;20505;-59
2022/08/18 09:23:16;;;;;;;42.45;32.63;;;;;;;24.03;49.65;99607.34;10396985;28;20540;-59
2022/08/18 09:28:27;;;;;;;36.25;31.00;;;;;;;24.14;49.34;99606.91;10397017;28;20052;-59
2022/08/18 09:33:44;;;;;;;36.17;31.92;;;;;;;24.47;47.76;99606.50;10397092;28;20581;-59
2022/08/18 09:44:40;;;;;;;33.63;27.60;;;;;;;24.63;48.03;99607.09;10396202;28;20068;-59
2022/08/18 09:49:49;;;;;;;31.77;27.17;;;;;;;24.85;47.38;99610.63;10395699;28;20076;-59
2022/08/18 09:55:04;;;;;;;32.58;27.58;;;;;;;24.85;46.34;99618.66;10395281;28;20057;-60
2022/08/18 10:00:11;;;;;;;32.60;27.17;;;;;;;24.94;46.62;99618.34;10395303;28;20164;-60
2022/08/18 10:05:16;;;;;;;32.85;27.02;;;;;;;25.15;46.75;99620.19;10395149;28;20041;-60
2022/08/18 10:10:44;;;;;;;30.98;26.33;;;;;;;25.23;45.57;99603.97;10395094;28;20057;-60
2022/08/18 10:16:21;;;;;;;29.65;23.77;;;;;;;25.45;44.90;99592.25;10394733;28;20063;-60
2022/08/18 10:21:27;;;;;;;;;;;;;;;25.48;45.04;99593.69;10395318;28;20497;-60
2022/08/18 10:26:49;;;;;;;31.02;25.17;;;;;;;25.89;44.01;99587.34;10394934;28;19929;-60
2022/08/18 10:32:14;;;;;;;32.53;26.13;;;;;;;25.96;43.39;99586.63;10394792;28;20049;-60
2022/08/18 10:37:27;;;;;;;34.20;27.33;;;;;;;25.60;43.83;99586.78;10394159;28;20056;-59
2022/08/18 10:43:06;;;;;;;35.40;27.25;;;;;;;24.96;45.05;99584.19;10393544;28;20150;-60
2022/08/18 10:48:31;;;;;;;33.88;27.05;;;;;;;24.59;45.92;99583.59;10394554;28;20055;-60
2022/08/18 10:53:41;;;;;;;37.17;28.52;;;;;;;24.40;46.14;99584.19;10393383;28;20481;-60
2022/08/18 10:59:11;;;;;;;33.22;26.63;;;;;;;24.25;46.51;99593.06;10393563;28;20084;-60
2022/08/18 11:04:46;;;;;;;34.63;27.77;;;;;;;24.35;46.33;99597.31;10390879;28;20714;-60
2022/08/18 11:10:13;;;;;;;34.88;27.45;;;;;;;24.43;46.16;99591.84;10392394;28;20049;-60
2022/08/18 11:15:59;;;;;;;32.88;26.25;;;;;;;24.50;46.27;99576.69;10393361;28;20063;-60
2022/08/18 11:21:23;;;;;;;33.53;25.73;;;;;;;24.66;45.88;99576.44;10392749;28;20486;-60
2022/08/18 11:26:29;;;;;;;29.30;25.50;;;;;;;24.69;45.92;99560.88;10392870;28;20115;-60
2022/08/18 11:31:30;;;;;;;31.63;26.65;;;;;;;24.50;45.92;99542.78;10392711;28;20046;-60
2022/08/18 11:36:33;;;;;;;29.05;25.95;;;;;;;24.53;46.06;99547.72;10390819;28;20116;-60
2022/08/18 11:41:36;;;;;;;30.17;26.55;;;;;;;24.58;45.85;99561.38;10392639;28;20099;-60
2022/08/18 11:47:14;;;;;;;27.85;24.30;;;;;;;24.38;46.15;99580.88;10393631;28;20052;-60
2022/08/18 11:52:28;;;;;;;;;;;;;;;23.74;47.33;99596.66;10391786;28;20120;-60
2022/08/18 11:57:47;;;;;;;28.25;24.83;;;;;;;23.90;47.11;99583.13;10391842;28;19947;-59
2022/08/18 12:03:01;;;;;;;26.75;23.85;;;;;;;23.90;47.27;99520.88;10392394;28;20050;-59
2022/08/18 12:08:03;;;;;;;26.92;24.02;;;;;;;24.59;45.82;99503.38;10391868;28;20579;-59
2022/08/18 12:13:23;;;;;;;27.63;23.75;;;;;;;25.01;44.95;99519.41;10375106;28;20053;-59
2022/08/18 12:18:27;;;;;;;25.05;21.70;;;;;;;25.12;44.77;99545.66;10391737;28;20045;-60
2022/08/18 12:23:33;;;;;;;26.15;20.98;;;;;;;25.20;44.33;99533.97;10394454;28;20103;-60
2022/08/18 12:28:45;;;;;;;31.33;21.40;;;;;;;25.20;44.18;99516.06;10398874;28;20053;-60
2022/08/18 12:33:47;;;;;;;21.20;18.83;;;;;;;25.71;43.30;99520.09;10399141;28;20057;-60
2022/08/18 12:39:02;;;;;;;25.15;20.60;;;;;;;26.10;42.54;99507.94;10397395;28;20335;-60
2022/08/18 12:44:05;;;;;;;20.33;18.23;;;;;;;26.46;42.12;99517.31;10398111;28;20476;-60
2022/08/18 12:49:18;;;;;;;22.80;19.23;;;;;;;26.65;41.15;99502.28;10398654;28;20119;-60
2022/08/18 12:54:20;;;;;;;22.13;18.25;;;;;;;26.59;41.06;99508.47;10397848;28;20137;-60
2022/08/18 12:59:25;;;;;;;26.20;18.08;;;;;;;26.61;40.92;99501.03;10397717;28;20410;-60
2022/08/18 13:04:32;;;;;;;20.08;17.98;;;;;;;26.25;41.13;99501.38;10397718;28;20049;-60
2022/08/18 13:09:35;;;;;;;20.55;17.50;;;;;;;26.76;40.45;99495.47;10397915;28;20684;-60
2022/08/18 13:14:54;;;;;;;19.17;16.52;;;;;;;26.76;40.51;99492.81;10397750;28;20307;-60
2022/08/18 13:19:58;;;;;;;22.27;18.00;;;;;;;26.38;40.66;99487.16;10396730;28;20061;-60
2022/08/18 13:25:02;;;;;;;22.63;17.02;;;;;;;26.22;41.11;99506.31;10396156;28;20058;-60
2022/08/18 13:30:13;;;;;;;21.35;18.23;;;;;;;26.46;40.58;99503.06;10396859;28;20060;-60
2022/08/18 13:35:33;;;;;;;22.42;17.92;;;;;;;26.43;40.54;99498.09;10395547;28;20362;-60
2022/08/18 13:40:41;;;;;;;21.83;16.92;;;;;;;26.93;39.87;99499.41;10396511;28;20524;-60
2022/08/18 13:45:49;;;;;;;23.77;16.20;;;;;;;26.88;39.94;99512.63;10388893;28;20136;-60
2022/08/18 13:50:57;;;;;;;26.85;16.40;;;;;;;26.87;40.07;99497.56;10396479;28;20045;-60
2022/08/18 13:56:02;;;;;;;21.58;15.63;;;;;;;27.15;39.54;99493.66;10395692;28;20122;-60
2022/08/18 14:01:06;;;;;;;18.73;15.00;;;;;;;27.22;39.20;99481.03;10395457;28;20117;-60
2022/08/18 14:06:28;;;;;;;17.13;14.10;;;;;;;27.08;39.24;99482.06;10395616;28;20063;-60
2022/08/18 14:11:33;;;;;;;16.55;14.05;;;;;;;26.90;39.51;99478.34;10395207;28;20080;-60
2022/08/18 14:16:36;;;;;;;15.90;13.48;;;;;;;26.98;39.37;99481.66;10395191;28;20485;-60
2022/08/18 14:27:06;;;;;;;16.02;13.68;;;;;;;26.10;40.83;99470.41;10394379;28;20469;-60
2022/08/18 14:32:09;;;;;;;17.77;12.95;;;;;;;26.15;40.77;99459.88;10393956;28;20471;-60
2022/08/18 14:37:22;;;;;;;16.67;12.68;;;;;;;26.19;40.32;99461.13;10394123;28;20045;-60
2022/08/18 14:42:24;;;;;;;17.38;12.82;;;;;;;26.21;40.44;99461.75;10393977;28;20128;-60
2022/08/18 14:47:42;;;;;;;15.13;11.73;;;;;;;26.44;40.11;99457.69;10392869;28;20089;-60
2022/08/18 14:52:44;;;;;;;14.23;12.05;;;;;;;26.54;39.85;99463.47;10393377;28;20131;-60
2022/08/18 14:57:51;;;;;;;13.55;11.43;;;;;;;26.62;39.68;99459.78;10392934;28;20061;-60
2022/08/18 15:02:56;;;;;;;16.05;12.52;;;;;;;26.85;39.10;99460.22;10393512;28;20049;-60
2022/08/18 15:08:02;;;;;;;12.90;11.55;;;;;;;27.02;38.36;99442.63;10376014;28;20203;-59
2022/08/18 15:13:04;;;;;;;16.60;12.20;;;;;;;26.79;38.99;99444.94;10393094;28;20132;-59
2022/08/18 15:18:06;;;;;;;12.27;10.23;;;;;;;26.80;38.34;99445.75;10393143;28;20127;-59
2022/08/18 15:28:31;;;;;;;14.23;10.18;;;;;;;27.11;37.73;99444.06;10391602;28;20054;-60
2022/08/18 15:33:34;;;;;;;11.98;9.85;;;;;;;27.20;37.45;99442.03;10391965;28;20053;-59
2022/08/18 15:38:37;;;;;;;12.32;9.43;;;;;;;27.27;36.83;99438.28;10392523;28;20053;-59
2022/08/18 15:43:38;;;;;;;12.00;9.70;;;;;;;26.91;37.50;99435.22;10392454;28;20099;-59
2022/08/18 15:48:46;;;;;;;12.45;9.43;;;;;;;26.75;37.78;99435.63;10391965;28;20327;-60
2022/08/18 15:53:48;;;;;;;15.43;10.60;;;;;;;26.61;37.75;99442.03;10392285;28;20152;-59
2022/08/18 15:58:51;;;;;;;12.77;9.75;;;;;;;26.64;37.63;99442.47;10396953;28;20080;-59
2022/08/18 16:03:54;;;;;;;11.65;9.25;;;;;;;26.35;37.47;99441.97;10399734;28;20073;-60
2022/08/18 16:08:55;;;;;;;10.48;8.65;;;;;;;26.39;37.43;99438.69;10399787;28;20134;-59
2022/08/18 16:13:57;;;;;;;12.27;9.13;;;;;;;26.46;37.17;99436.84;10398990;28;20145;-59
2022/08/18 16:19:00;;;;;;;10.50;9.20;;;;;;;26.66;37.31;99429.66;10399389;28;20557;-59
2022/08/18 16:24:02;;;;;;;13.25;10.52;;;;;;;26.52;37.28;99440.56;10399237;28;20136;-58
2022/08/18 16:29:04;;;;;;;13.48;10.60;;;;;;;26.33;37.72;99442.19;10399387;28;20073;-58
2022/08/18 16:34:06;;;;;;;14.63;10.15;;;;;;;26.35;37.59;99450.03;10398898;28;20139;-59
2022/08/18 16:39:07;;;;;;;11.93;9.30;;;;;;;26.45;37.75;99437.03;10398563;28;20132;-59
2022/08/18 16:44:09;;;;;;;13.60;9.52;;;;;;;26.39;37.54;99435.19;10398621;28;20085;-59
2022/08/18 16:49:11;;;;;;;14.93;10.05;;;;;;;26.20;37.91;99422.59;10397053;28;20049;-59
2022/08/18 16:54:15;;;;;;;12.40;9.70;;;;;;;26.02;38.34;99422.34;10396876;28;20131;-58
2022/08/18 17:04:37;;;;;;;13.88;9.93;;;;;;;25.97;38.47;99422.13;10397810;28;20076;-59
2022/08/18 17:09:39;;;;;;;13.02;10.27;;;;;;;25.87;38.80;99411.78;10396494;28;20665;-59
2022/08/18 17:14:40;;;;;;;12.98;10.68;;;;;;;25.77;38.92;99411.34;10397766;28;20140;-59
2022/08/18 17:19:44;;;;;;;15.93;11.70;;;;;;;25.70;39.03;99408.63;10397004;28;20541;-59
2022/08/18 17:24:46;;;;;;;15.45;11.40;;;;;;;25.69;39.12;99406.16;10395704;28;20080;-59
2022/08/18 17:30:29;;;;;;;16.98;11.25;;;;;;;25.32;39.50;99407.41;10396643;28;20093;-59
2022/08/18 17:35:36;;;;;;;;;;;;;;;24.87;40.39;99413.31;10370393;28;20050;-59
2022/08/18 17:40:47;;;;;;;15.85;10.95;;;;;;;25.15;39.92;99411.44;10396737;28;20420;-59
2022/08/18 17:46:04;;;;;;;14.00;10.95;;;;;;;25.10;40.41;99409.34;10396539;28;20129;-59
2022/08/18 17:56:41;;;;;;;11.98;10.68;;;;;;;24.91;41.11;99415.41;10395123;28;20101;-59
2022/08/18 18:01:42;;;;;;;14.93;11.25;;;;;;;24.82;41.09;99427.28;10395426;28;20077;-59
2022/08/18 18:06:44;;;;;;;16.50;11.38;;;;;;;24.71;41.57;99430.50;10395301;28;20076;-59
2022/08/18 18:11:49;;;;;;;14.80;11.57;;;;;;;24.61;41.62;99434.50;10395681;28;20389;-59
2022/08/18 18:17:07;;;;;;;13.38;11.35;;;;;;;24.50;42.05;99440.34;10394751;28;20140;-59
2022/08/18 18:22:27;;;;;;;13.45;11.98;;;;;;;24.36;42.37;99441.25;10393742;28;20056;-59
2022/08/18 18:27:39;;;;;;;14.25;12.43;;;;;;;24.39;42.25;99435.53;10394176;28;20741;-59
2022/08/18 18:32:47;;;;;;;13.43;11.57;;;;;;;24.35;42.46;99442.28;10394471;28;20050;-59
2022/08/18 18:38:01;;;;;;;12.93;11.60;;;;;;;24.33;42.42;99442.44;10393879;28;20363;-59
2022/08/18 18:43:23;;;;;;;16.95;11.60;;;;;;;24.21;42.73;99460.84;10394114;28;20494;-59
2022/08/18 18:48:32;;;;;;;12.60;11.25;;;;;;;24.27;42.56;99453.91;10393988;28;20132;-59
2022/08/18 18:54:05;;;;;;;15.20;10.95;;;;;;;24.22;42.82;99457.16;10392550;28;20072;-59
2022/08/18 18:59:28;;;;;;;15.13;11.60;;;;;;;24.15;42.94;99466.13;10375617;28;20413;-59
2022/08/18 19:04:42;;;;;;;12.67;11.00;;;;;;;24.06;43.16;99454.69;10407327;28;20057;-59
2022/08/18 19:09:58;;;;;;;13.10;10.93;;;;;;;24.07;43.28;99459.06;10393360;28;20049;-59
2022/08/18 19:15:13;;;;;;;13.73;10.93;;;;;;;24.04;43.35;99464.72;10393231;28;21185;-59
2022/08/18 19:20:23;;;;;;;14.23;10.40;;;;;;;24.07;43.55;99471.56;10393024;28;20080;-59
2022/08/18 19:25:27;;;;;;;12.57;10.95;;;;;;;24.01;43.52;99473.13;10392918;28;20140;-59
2022/08/18 19:30:31;;;;;;;14.23;10.50;;;;;;;23.96;43.58;99467.50;10392803;28;20084;-59
2022/08/18 19:35:49;;;;;;;15.13;10.90;;;;;;;23.94;43.84;99469.53;10400925;28;20485;-59
2022/08/18 19:41:28;;;;;;;12.65;10.70;;;;;;;23.83;44.19;99466.53;10400706;28;20080;-59
2022/08/18 19:46:39;;;;;;;13.20;11.05;;;;;;;23.84;44.01;99469.03;10399537;28;20073;-59
2022/08/18 19:51:43;;;;;;;13.05;10.70;;;;;;;23.76;44.17;99461.13;10400567;28;20081;-59
2022/08/18 19:56:57;;;;;;;14.25;11.25;;;;;;;23.65;44.54;99464.28;10399995;28;20373;-59
2022/08/18 20:02:17;;;;;;;13.98;10.45;;;;;;;23.56;44.77;99457.38;10400269;28;20130;-59
2022/08/18 20:07:54;;;;;;;12.07;10.57;;;;;;;23.51;44.78;99470.47;10400408;28;20140;-59
2022/08/18 20:13:35;;;;;;;15.10;10.70;;;;;;;23.32;45.41;99474.50;10397126;28;20132;-59
2022/08/18 20:18:47;;;;;;;11.55;10.35;;;;;;;23.34;45.23;99467.13;10399532;28;20057;-60
2022/08/18 20:24:22;;;;;;;11.98;10.10;;;;;;;23.34;45.33;99468.97;10397771;28;20660;-60
2022/08/18 20:29:36;;;;;;;12.30;9.82;;;;;;;23.36;45.24;99469.59;10381703;28;20076;-60
2022/08/18 20:34:49;;;;;;;12.00;10.80;;;;;;;23.32;45.31;99479.81;10397495;28;20493;-59
2022/08/18 20:39:53;;;;;;;13.77;10.18;;;;;;;23.36;45.29;99469.59;10399037;28;20137;-60
2022/08/18 20:45:19;;;;;;;12.80;10.05;;;;;;;23.31;45.46;99471.97;10397157;28;20056;-59
2022/08/18 20:50:42;;;;;;;17.15;10.13;;;;;;;23.30;45.68;99475.69;10399308;28;20113;-60
2022/08/18 20:56:09;;;;;;;11.65;9.75;;;;;;;23.17;45.94;99475.47;10397559;28;20099;-60
2022/08/18 21:01:30;;;;;;;13.55;10.50;;;;;;;23.16;46.17;99468.50;10398564;28;20061;-60
2022/08/18 21:06:39;;;;;;;15.02;11.05;;;;;;;23.12;46.01;99485.88;10398218;28;20136;-60
2022/08/18 21:11:44;;;;;;;;;;;;;;;22.72;46.88;99486.25;10398522;28;20111;-60
2022/08/18 21:16:46;;;;;;;11.75;10.23;;;;;;;23.02;46.41;99483.47;10397225;28;20443;-60
2022/08/18 21:22:02;;;;;;;12.20;10.90;;;;;;;23.00;46.50;99477.50;10397030;28;20859;-59
2022/08/18 21:27:18;;;;;;;14.48;11.20;;;;;;;22.94;46.59;99482.72;10396510;28;20136;-59
2022/08/18 21:32:30;;;;;;;14.25;12.27;;;;;;;22.83;46.69;99496.47;10396880;28;20504;-60
2022/08/18 21:37:35;;;;;;;12.80;11.50;;;;;;;22.80;46.87;99495.00;10396526;28;20057;-59
2022/08/18 21:42:44;;;;;;;15.75;11.73;;;;;;;22.67;47.18;99506.25;10395975;28;20832;-59
2022/08/18 21:48:01;;;;;;;15.43;12.30;;;;;;;22.58;47.45;99507.31;10396182;28;20049;-59
2022/08/18 21:53:14;;;;;;;13.82;12.35;;;;;;;22.62;47.35;99503.28;10395922;28;20041;-59
2022/08/18 21:58:36;;;;;;;17.20;13.50;;;;;;;22.47;47.55;99499.75;10394994;28;20054;-59
2022/08/18 22:03:53;;;;;;;14.32;12.80;;;;;;;22.36;47.81;99510.81;10395444;28;20081;-59
2022/08/18 22:08:55;;;;;;;14.13;12.77;;;;;;;22.25;48.28;99516.53;10395078;28;20474;-59
2022/08/18 22:14:00;;;;;;;16.08;14.48;;;;;;;22.14;48.15;99513.44;10394416;28;20045;-59
2022/08/18 22:19:09;;;;;;;16.13;13.63;;;;;;;22.07;48.48;99521.31;10394730;28;20103;-60
2022/08/18 22:24:20;;;;;;;18.02;14.57;;;;;;;21.87;48.97;99512.06;10394683;28;20137;-59
2022/08/18 22:29:32;;;;;;;18.08;15.32;;;;;;;21.73;49.35;99515.44;10394385;28;20170;-59
2022/08/18 22:34:34;;;;;;;17.63;14.52;;;;;;;21.72;49.38;99511.94;10392776;28;20176;-59
2022/08/18 22:39:51;;;;;;;18.10;15.15;;;;;;;21.65;49.53;99510.16;10394797;28;20463;-59
2022/08/18 22:44:56;;;;;;;16.08;14.40;;;;;;;21.62;49.72;99507.88;10393934;28;20053;-59
2022/08/18 22:50:05;;;;;;;19.07;15.10;;;;;;;21.50;49.58;99519.84;10393937;28;20137;-59
2022/08/18 22:55:12;;;;;;;17.27;15.57;;;;;;;21.51;50.01;99516.19;10393058;28;20136;-59
2022/08/18 23:00:17;;;;;;;18.73;15.05;;;;;;;21.45;50.22;99508.91;10392981;28;20509;-59
2022/08/18 23:05:20;;;;;;;17.48;15.57;;;;;;;21.31;50.43;99504.25;10393010;28;20049;-59
2022/08/18 23:10:21;;;;;;;20.08;15.70;;;;;;;21.32;50.44;99516.56;10392332;28;20136;-59
2022/08/18 23:20:46;;;;;;;21.67;15.70;;;;;;;21.32;50.61;99524.56;10392034;28;20057;-59
2022/08/18 23:25:49;;;;;;;18.83;15.70;;;;;;;21.32;50.31;99532.53;10392639;28;20049;-59
2022/08/18 23:30:51;;;;;;;16.65;14.57;;;;;;;21.31;50.66;99531.69;10392323;28;20081;-59
2022/08/18 23:35:53;;;;;;;16.63;14.73;;;;;;;21.34;50.46;99536.69;10390978;28;20088;-59
2022/08/18 23:40:56;;;;;;;17.35;14.70;;;;;;;21.21;51.11;99536.38;10391468;28;20103;-59
2022/08/18 23:45:57;;;;;;;16.42;14.40;;;;;;;21.13;51.39;99541.69;10392058;28;20531;-59
2022/08/18 23:51:01;;;;;;;19.40;14.60;;;;;;;21.17;51.39;99550.16;10390916;28;20557;-59
2022/08/18 23:56:04;;;;;;;18.70;15.02;;;;;;;21.27;50.90;99546.34;10391632;28;20058;-59
